createdAt,value
2023-07-10T00:00:22.062Z,102132.19
2023-07-10T00:02:50.137Z,102138.16
2023-07-10T00:05:19.232Z,102148.75
2023-07-10T00:07:46.802Z,102160.44
2023-07-10T00:10:15.792Z,102153.38
2023-07-10T00:12:44.437Z,102158.28
2023-07-10T00:15:17.313Z,102164.78
2023-07-10T00:17:46.427Z,102159.91
2023-07-10T00:20:15.805Z,102154.47
2023-07-10T00:22:42.355Z,102143.06
2023-07-10T00:25:10.137Z,102141.97
2023-07-10T00:27:36.700Z,102146.91
2023-07-10T00:30:04.197Z,102157.84
2023-07-10T00:32:30.982Z,102142.13
2023-07-10T00:34:57.576Z,102140.72
2023-07-10T00:37:24.110Z,102148.28
2023-07-10T00:39:50.660Z,102155.84
2023-07-10T00:42:23.331Z,102158.81
2023-07-10T00:44:57.494Z,102152.28
2023-07-10T00:47:33.879Z,102145.75
2023-07-10T00:50:06.706Z,102143.06
2023-07-10T00:52:38.642Z,102145.78
2023-07-10T00:55:30.028Z,102144.69
2023-07-10T00:58:30.260Z,102133.84
2023-07-10T01:01:09.851Z,102140.88
2023-07-10T01:03:37.900Z,102138.69
2023-07-10T01:06:10.183Z,102134.34
2023-07-10T01:08:40.643Z,102143.06
2023-07-10T01:11:07.580Z,102142.56
2023-07-10T01:13:35.633Z,102142.84
2023-07-10T01:16:02.741Z,102137.41
2023-07-10T01:18:30.179Z,102141.75
2023-07-10T01:21:26.952Z,102126.25
2023-07-10T01:23:54.921Z,102129.25
2023-07-10T01:26:21.662Z,102132.28
2023-07-10T01:28:48.424Z,102131.19
2023-07-10T01:31:18.654Z,102126.91
2023-07-10T01:33:51.651Z,102129.09
2023-07-10T01:36:20.377Z,102123.47
2023-07-10T01:38:51.733Z,102121.84
2023-07-10T01:41:38.090Z,102126.28
2023-07-10T01:44:27.684Z,102131.25
2023-07-10T01:46:55.725Z,102145.75
2023-07-10T01:49:52.084Z,102161.78
2023-07-10T01:52:20.779Z,102155.53
2023-07-10T01:54:47.505Z,102153.13
2023-07-10T01:57:16.321Z,102151.56
2023-07-10T01:59:43.209Z,102133.41
2023-07-10T02:02:10.334Z,102135.41
2023-07-10T02:04:37.440Z,102147.72
2023-07-10T02:07:04.246Z,102147.78
2023-07-10T02:09:32.887Z,102148.63
2023-07-10T02:12:00.599Z,102143.50
2023-07-10T02:14:27.716Z,102151.63
2023-07-10T02:16:54.326Z,102148.13
2023-07-10T02:19:21.780Z,102159.03
2023-07-10T02:21:48.699Z,102156.09
2023-07-10T02:24:15.893Z,102157.19
2023-07-10T02:26:42.577Z,102150.72
2023-07-10T02:29:09.837Z,102158.31
2023-07-10T02:31:36.663Z,102162.97
2023-07-10T02:34:03.372Z,102150.78
2023-07-10T02:36:30.370Z,102150.50
2023-07-10T02:38:57.695Z,102142.34
2023-07-10T02:41:24.580Z,102135.59
2023-07-10T02:43:51.394Z,102145.63
2023-07-10T02:46:18.027Z,102143.75
2023-07-10T02:48:44.700Z,102142.44
2023-07-10T02:51:11.350Z,102145.16
2023-07-10T02:53:38.689Z,102148.13
2023-07-10T02:56:05.520Z,102155.78
2023-07-10T02:58:32.269Z,102156.38
2023-07-10T03:01:01.340Z,102158.03
2023-07-10T03:03:28.377Z,102153.19
2023-07-10T03:05:57.388Z,102152.38
2023-07-10T03:08:24.184Z,102161.91
2023-07-10T03:11:02.316Z,102162.47
2023-07-10T03:13:28.865Z,102167.34
2023-07-10T03:16:04.421Z,102164.72
2023-07-10T03:18:31.709Z,102161.75
2023-07-10T03:20:58.184Z,102164.75
2023-07-10T03:23:24.862Z,102167.47
2023-07-10T03:25:51.757Z,102164.22
2023-07-10T03:28:18.279Z,102166.69
2023-07-10T03:30:45.383Z,102169.72
2023-07-10T03:33:14.502Z,102176.53
2023-07-10T03:35:41.601Z,102183.31
2023-07-10T03:38:09.010Z,102180.66
2023-07-10T03:40:36.010Z,102188.78
2023-07-10T03:43:02.497Z,102185.31
2023-07-10T03:45:31.533Z,102184.47
2023-07-10T03:47:58.180Z,102185.56
2023-07-10T03:50:24.950Z,102185.56
2023-07-10T03:52:51.425Z,102189.38
2023-07-10T03:55:17.942Z,102192.38
2023-07-10T03:57:44.477Z,102198.06
2023-07-10T04:00:11.601Z,102198.34
2023-07-10T04:02:38.240Z,102212.16
2023-07-10T04:05:05.233Z,102202.13
2023-07-10T04:07:31.783Z,102201.81
2023-07-10T04:09:58.267Z,102199.66
2023-07-10T04:12:26.825Z,102198.25
2023-07-10T04:14:54.789Z,102207.50
2023-07-10T04:17:21.480Z,102201.50
2023-07-10T04:19:48.125Z,102206.66
2023-07-10T04:22:14.724Z,102214.75
2023-07-10T04:24:41.467Z,102219.31
2023-07-10T04:27:08.358Z,102211.72
2023-07-10T04:29:35.029Z,102215.50
2023-07-10T04:32:01.588Z,102222.28
2023-07-10T04:34:28.160Z,102220.13
2023-07-10T04:36:54.731Z,102225.28
2023-07-10T04:39:21.531Z,102228.81
2023-07-10T04:41:48.127Z,102226.88
2023-07-10T04:44:14.888Z,102220.38
2023-07-10T04:46:42.674Z,102219.00
2023-07-10T04:49:09.415Z,102221.69
2023-07-10T04:51:36.000Z,102220.13
2023-07-10T04:54:02.545Z,102220.13
2023-07-10T04:56:29.098Z,102217.44
2023-07-10T04:58:57.791Z,102218.50
2023-07-10T05:01:28.044Z,102220.63
2023-07-10T05:03:54.957Z,102214.41
2023-07-10T05:06:22.017Z,102211.69
2023-07-10T05:08:48.745Z,102214.41
2023-07-10T05:11:16.060Z,102221.44
2023-07-10T05:13:42.629Z,102220.13
2023-07-10T05:16:09.798Z,102221.34
2023-07-10T05:18:36.370Z,102226.91
2023-07-10T05:21:04.328Z,102231.09
2023-07-10T05:23:31.422Z,102228.22
2023-07-10T05:26:13.930Z,102229.63
2023-07-10T05:28:40.785Z,102218.97
2023-07-10T05:31:09.206Z,102214.69
2023-07-10T05:33:37.257Z,102223.94
2023-07-10T05:36:06.674Z,102223.09
2023-07-10T05:38:35.509Z,102225.75
2023-07-10T05:41:03.018Z,102231.50
2023-07-10T05:43:30.716Z,102222.75
2023-07-10T05:45:57.754Z,102228.44
2023-07-10T05:48:24.351Z,102213.63
2023-07-10T05:50:51.497Z,102225.31
2023-07-10T05:53:19.105Z,102226.66
2023-07-10T05:55:51.082Z,102229.00
2023-07-10T05:58:19.476Z,102231.47
2023-07-10T06:00:48.309Z,102225.22
2023-07-10T06:03:15.360Z,102224.63
2023-07-10T06:05:42.153Z,102226.06
2023-07-10T06:08:10.344Z,102225.78
2023-07-10T06:10:36.964Z,102216.97
2023-07-10T06:13:03.603Z,102224.34
2023-07-10T06:15:31.374Z,102223.09
2023-07-10T06:17:57.932Z,102219.53
2023-07-10T06:20:24.519Z,102229.13
2023-07-10T06:22:51.010Z,102232.81
2023-07-10T06:25:17.720Z,102234.41
2023-07-10T06:27:44.340Z,102233.50
2023-07-10T06:30:12.344Z,102244.50
2023-07-10T06:32:38.893Z,102243.13
2023-07-10T06:35:07.128Z,102241.94
2023-07-10T06:37:34.154Z,102241.09
2023-07-10T06:40:05.781Z,102239.16
2023-07-10T06:42:32.414Z,102247.91
2023-07-10T06:44:59.016Z,102236.56
2023-07-10T06:47:25.783Z,102240.22
2023-07-10T06:49:52.331Z,102243.19
2023-07-10T06:52:19.087Z,102244.22
2023-07-10T06:54:45.701Z,102245.84
2023-07-10T06:57:12.276Z,102253.22
2023-07-10T06:59:38.771Z,102263.06
2023-07-10T07:02:07.640Z,102258.00
2023-07-10T07:04:34.340Z,102268.44
2023-07-10T07:07:00.879Z,102266.84
2023-07-10T07:09:27.358Z,102263.91
2023-07-10T07:11:53.956Z,102267.69
2023-07-10T07:14:20.449Z,102277.78
2023-07-10T07:16:47.047Z,102282.19
2023-07-10T07:19:13.727Z,102278.34
2023-07-10T07:21:40.261Z,102278.78
2023-07-10T07:24:06.911Z,102279.13
2023-07-10T07:26:33.417Z,102279.28
2023-07-10T07:28:59.892Z,102270.88
2023-07-10T07:31:26.544Z,102267.84
2023-07-10T07:33:53.381Z,102276.75
2023-07-10T07:36:20.165Z,102275.41
2023-07-10T07:38:46.701Z,102280.34
2023-07-10T07:41:14.185Z,102277.28
2023-07-10T07:43:40.716Z,102277.31
2023-07-10T07:46:07.588Z,102272.66
2023-07-10T07:48:34.485Z,102273.28
2023-07-10T07:51:04.284Z,102280.53
2023-07-10T07:53:34.674Z,102274.91
2023-07-10T07:56:01.548Z,102293.94
2023-07-10T07:58:30.069Z,102289.91
2023-07-10T08:00:56.904Z,102287.16
2023-07-10T08:03:23.568Z,102284.75
2023-07-10T08:05:50.299Z,102275.09
2023-07-10T08:08:16.963Z,102281.06
2023-07-10T08:10:47.275Z,102272.34
2023-07-10T08:13:15.571Z,102268.47
2023-07-10T08:15:42.738Z,102273.19
2023-07-10T08:18:10.074Z,102270.09
2023-07-10T08:20:37.453Z,102263.50
2023-07-10T08:23:05.585Z,102272.63
2023-07-10T08:25:32.434Z,102271.97
2023-07-10T08:27:59.678Z,102264.38
2023-07-10T08:30:27.217Z,102255.59
2023-07-10T08:32:54.200Z,102263.97
2023-07-10T08:35:20.743Z,102265.41
2023-07-10T08:37:48.630Z,102257.47
2023-07-10T08:40:27.621Z,102258.34
2023-07-10T08:42:54.176Z,102258.28
2023-07-10T08:45:35.349Z,102257.69
2023-07-10T08:48:36.262Z,102264.31
2023-07-10T08:51:16.339Z,102267.59
2023-07-10T08:53:46.226Z,102266.34
2023-07-10T08:56:35.450Z,102275.81
2023-07-10T08:59:34.819Z,102268.50
2023-07-10T09:02:01.865Z,102279.56
2023-07-10T09:04:31.568Z,102273.50
2023-07-10T09:07:02.884Z,102271.00
2023-07-10T09:09:40.217Z,102267.63
2023-07-10T09:12:15.322Z,102267.09
2023-07-10T09:14:55.493Z,102270.31
2023-07-10T09:17:48.119Z,102277.91
2023-07-10T09:20:15.628Z,102284.81
2023-07-10T09:23:11.733Z,102287.56
2023-07-10T09:25:38.753Z,102280.38
2023-07-10T09:28:05.410Z,102283.50
2023-07-10T09:30:53.037Z,102291.69
2023-07-10T09:33:21.306Z,102286.38
2023-07-10T09:35:49.186Z,102287.69
2023-07-10T09:38:19.574Z,102280.97
2023-07-10T09:40:51.502Z,102284.31
2023-07-10T09:43:22.212Z,102294.03
2023-07-10T09:45:51.694Z,102291.69
2023-07-10T09:48:32.739Z,102296.38
2023-07-10T09:51:03.334Z,102295.34
2023-07-10T09:53:46.423Z,102281.25
2023-07-10T09:56:37.003Z,102273.13
2023-07-10T09:59:20.589Z,102269.53
2023-07-10T10:01:49.383Z,102271.88
2023-07-10T10:04:31.038Z,102273.31
2023-07-10T10:07:03.066Z,102280.31
2023-07-10T10:09:30.954Z,102274.06
2023-07-10T10:12:04.315Z,102277.16
2023-07-10T10:14:57.524Z,102268.63
2023-07-10T10:17:26.909Z,102271.69
2023-07-10T10:20:30.744Z,102269.72
2023-07-10T10:22:57.320Z,102282.31
2023-07-10T10:25:33.524Z,102274.25
2023-07-10T10:28:33.039Z,102270.72
2023-07-10T10:31:07.981Z,102265.91
2023-07-10T10:33:39.572Z,102277.38
2023-07-10T10:36:23.978Z,102278.63
2023-07-10T10:39:23.745Z,102274.66
2023-07-10T10:41:56.431Z,102273.31
2023-07-10T10:44:41.956Z,102271.72
2023-07-10T10:47:31.308Z,102268.41
2023-07-10T10:50:00.414Z,102269.81
2023-07-10T10:52:33.017Z,102267.31
2023-07-10T10:55:30.229Z,102278.69
2023-07-10T10:58:14.544Z,102273.69
2023-07-10T11:01:20.108Z,102280.72
2023-07-10T11:03:51.422Z,102281.16
2023-07-10T11:06:27.015Z,102283.50
2023-07-10T11:08:57.412Z,102278.84
2023-07-10T11:11:31.028Z,102281.75
2023-07-10T11:14:00.434Z,102279.63
2023-07-10T11:16:31.374Z,102268.50
2023-07-10T11:19:00.277Z,102276.72
2023-07-10T11:21:26.940Z,102259.41
2023-07-10T11:23:53.665Z,102273.63
2023-07-10T11:26:29.530Z,102264.31
2023-07-10T11:29:07.501Z,102269.03
2023-07-10T11:31:35.303Z,102265.03
2023-07-10T11:34:08.309Z,102267.84
2023-07-10T11:36:34.942Z,102255.38
2023-07-10T11:39:07.196Z,102266.72
2023-07-10T11:41:38.152Z,102257.63
2023-07-10T11:44:22.853Z,102249.56
2023-07-10T11:46:58.664Z,102258.75
2023-07-10T11:49:27.805Z,102257.28
2023-07-10T11:52:15.663Z,102258.81
2023-07-10T11:54:48.357Z,102261.69
2023-07-10T11:57:17.227Z,102252.13
2023-07-10T11:59:49.185Z,102254.25
2023-07-10T12:02:21.489Z,102248.91
2023-07-10T12:04:47.988Z,102247.38
2023-07-10T12:07:14.529Z,102253.28
2023-07-10T12:09:41.010Z,102245.19
2023-07-10T12:12:14.628Z,102251.41
2023-07-10T12:14:41.533Z,102240.88
2023-07-10T12:19:48.645Z,102238.75
2023-07-10T12:22:24.230Z,102249.41
2023-07-10T12:24:54.170Z,102250.94
2023-07-10T12:29:53.607Z,102244.59
2023-07-10T12:32:22.620Z,102248.66
2023-07-10T12:34:49.509Z,102243.38
2023-07-10T12:37:18.092Z,102248.03
2023-07-10T12:39:52.786Z,102248.50
2023-07-10T12:42:32.852Z,102250.41
2023-07-10T12:45:05.833Z,102241.50
2023-07-10T12:47:45.247Z,102229.94
2023-07-10T12:50:16.099Z,102233.03
2023-07-10T12:52:43.674Z,102227.59
2023-07-10T12:55:18.186Z,102232.00
2023-07-10T12:57:44.864Z,102232.34
2023-07-10T13:00:12.347Z,102235.41
2023-07-10T13:02:47.488Z,102230.31
2023-07-10T13:05:30.027Z,102235.47
2023-07-10T13:07:59.235Z,102230.88
2023-07-10T13:10:39.990Z,102231.16
2023-07-10T13:13:14.889Z,102223.09
2023-07-10T13:15:41.544Z,102229.69
2023-07-10T13:18:25.627Z,102215.38
2023-07-10T13:20:52.349Z,102216.72
2023-07-10T13:23:18.905Z,102214.66
2023-07-10T13:25:45.776Z,102224.56
2023-07-10T13:28:39.663Z,102221.56
2023-07-10T13:31:11.820Z,102207.63
2023-07-10T13:33:38.376Z,102224.47
2023-07-10T13:36:13.331Z,102220.28
2023-07-10T13:38:39.898Z,102220.19
2023-07-10T13:41:06.433Z,102216.56
2023-07-10T13:43:33.074Z,102208.91
2023-07-10T13:46:05.994Z,102215.91
2023-07-10T13:48:32.653Z,102220.28
2023-07-10T13:50:59.134Z,102215.97
2023-07-10T13:53:26.141Z,102214.88
2023-07-10T13:55:53.136Z,102214.44
2023-07-10T13:58:22.551Z,102210.06
2023-07-10T14:00:51.271Z,102207.59
2023-07-10T14:03:19.478Z,102206.44
2023-07-10T14:05:48.411Z,102212.69
2023-07-10T14:08:31.877Z,102212.56
2023-07-10T14:11:00.571Z,102203.13
2023-07-10T14:13:27.345Z,102202.88
2023-07-10T14:16:07.152Z,102207.94
2023-07-10T14:18:34.202Z,102197.28
2023-07-10T14:21:04.121Z,102197.28
2023-07-10T14:23:30.914Z,102193.78
2023-07-10T14:25:57.761Z,102195.81
2023-07-10T14:28:26.180Z,102189.78
2023-07-10T14:30:53.667Z,102189.69
2023-07-10T14:33:20.778Z,102194.44
2023-07-10T14:35:53.215Z,102186.91
2023-07-10T14:38:28.699Z,102185.81
2023-07-10T14:40:56.629Z,102191.28
2023-07-10T14:43:23.615Z,102175.94
2023-07-10T14:45:54.972Z,102171.47
2023-07-10T14:48:22.586Z,102174.91
2023-07-10T14:50:50.297Z,102161.22
2023-07-10T14:53:19.375Z,102177.31
2023-07-10T14:55:48.177Z,102180.97
2023-07-10T14:58:26.071Z,102182.66
2023-07-10T15:00:54.339Z,102185.00
2023-07-10T15:03:21.651Z,102177.69
2023-07-10T15:05:51.014Z,102175.16
2023-07-10T15:08:29.819Z,102177.19
2023-07-10T15:10:57.479Z,102175.88
2023-07-10T15:13:26.262Z,102173.16
2023-07-10T15:15:53.246Z,102164.13
2023-07-10T15:18:24.330Z,102161.41
2023-07-10T15:20:50.947Z,102163.72
2023-07-10T15:23:31.619Z,102160.19
2023-07-10T15:26:04.837Z,102151.59
2023-07-10T15:28:32.463Z,102156.09
2023-07-10T15:31:02.466Z,102147.50
2023-07-10T15:33:34.883Z,102141.94
2023-07-10T15:36:02.299Z,102135.75
2023-07-10T15:38:29.313Z,102129.88
2023-07-10T15:40:58.812Z,102127.97
2023-07-10T15:43:28.268Z,102122.63
2023-07-10T15:45:56.199Z,102118.41
2023-07-10T15:48:23.386Z,102115.69
2023-07-10T15:50:51.033Z,102123.16
2023-07-10T15:53:20.203Z,102128.16
2023-07-10T15:55:47.290Z,102119.84
2023-07-10T15:58:19.363Z,102121.09
2023-07-10T16:00:49.649Z,102117.47
2023-07-10T16:03:25.615Z,102117.03
2023-07-10T16:05:54.900Z,102114.06
2023-07-10T16:08:24.847Z,102115.00
2023-07-10T16:10:59.189Z,102113.84
2023-07-10T16:13:28.394Z,102105.13
2023-07-10T16:15:54.978Z,102100.88
2023-07-10T16:18:30.380Z,102096.59
2023-07-10T16:20:59.293Z,102102.63
2023-07-10T16:23:35.362Z,102087.47
2023-07-10T16:26:02.452Z,102092.00
2023-07-10T16:28:30.259Z,102083.34
2023-07-10T16:30:57.298Z,102090.75
2023-07-10T16:33:27.655Z,102082.25
2023-07-10T16:35:54.948Z,102080.56
2023-07-10T16:38:24.490Z,102070.03
2023-07-10T16:40:54.027Z,102065.94
2023-07-10T16:43:28.165Z,102074.25
2023-07-10T16:45:54.652Z,102063.59
2023-07-10T16:48:25.199Z,102069.63
2023-07-10T16:50:55.949Z,102068.69
2023-07-10T16:53:32.759Z,102064.06
2023-07-10T16:56:01.932Z,102069.69
2023-07-10T16:58:33.759Z,102057.97
2023-07-10T17:01:00.824Z,102058.69
2023-07-10T17:03:32.708Z,102054.72
2023-07-10T17:06:01.018Z,102054.59
2023-07-10T17:08:29.667Z,102053.19
2023-07-10T17:10:58.266Z,102051.50
2023-07-10T17:13:27.928Z,102050.34
2023-07-10T17:15:56.824Z,102048.31
2023-07-10T17:18:29.053Z,102038.91
2023-07-10T17:20:58.926Z,102044.59
2023-07-10T17:23:29.618Z,102044.66
2023-07-10T17:25:56.843Z,102049.09
2023-07-10T17:28:26.274Z,102043.47
2023-07-10T17:30:54.395Z,102042.88
2023-07-10T17:33:36.293Z,102041.72
2023-07-10T17:36:04.729Z,102035.88
2023-07-10T17:38:33.744Z,102047.44
2023-07-10T17:41:01.323Z,102037.22
2023-07-10T17:43:32.077Z,102029.56
2023-07-10T17:46:02.856Z,102035.69
2023-07-10T17:48:30.422Z,102029.84
2023-07-10T17:51:10.031Z,102032.13
2023-07-10T17:53:39.561Z,102028.88
2023-07-10T17:56:07.127Z,102028.81
2023-07-10T17:58:33.684Z,102025.59
2023-07-10T18:01:00.497Z,102026.88
2023-07-10T18:03:30.265Z,102030.88
2023-07-10T18:05:58.074Z,102031.00
2023-07-10T18:08:28.207Z,102036.44
2023-07-10T18:11:02.798Z,102031.50
2023-07-10T18:13:37.172Z,102025.69
2023-07-10T18:16:06.614Z,102022.19
2023-07-10T18:18:35.243Z,102024.25
2023-07-10T18:21:18.445Z,102025.84
2023-07-10T18:23:45.303Z,102025.91
2023-07-10T18:26:11.919Z,102021.97
2023-07-10T18:28:38.522Z,102018.22
2023-07-10T18:31:20.079Z,102019.47
2023-07-10T18:33:46.883Z,102010.94
2023-07-10T18:36:14.744Z,102009.75
2023-07-10T18:38:41.550Z,102017.31
2023-07-10T18:41:17.675Z,102011.09
2023-07-10T18:43:45.752Z,102011.91
2023-07-10T18:46:20.840Z,102008.44
2023-07-10T18:48:47.503Z,102016.88
2023-07-10T18:51:24.401Z,102005.75
2023-07-10T18:53:52.759Z,102004.28
2023-07-10T18:56:20.005Z,102004.00
2023-07-10T18:58:48.299Z,102005.34
2023-07-10T19:01:16.480Z,101997.75
2023-07-10T19:03:44.712Z,101991.56
2023-07-10T19:06:19.979Z,101998.00
2023-07-10T19:08:46.878Z,101995.38
2023-07-10T19:11:15.362Z,101993.81
2023-07-10T19:13:45.197Z,101990.72
2023-07-10T19:16:23.287Z,101998.56
2023-07-10T19:18:55.462Z,101992.25
2023-07-10T19:21:22.349Z,101980.91
2023-07-10T19:23:49.219Z,101974.75
2023-07-10T19:26:15.775Z,101972.66
2023-07-10T19:28:44.176Z,101969.13
2023-07-10T19:31:13.353Z,101975.44
2023-07-10T19:33:43.150Z,101970.03
2023-07-10T19:36:14.632Z,101967.72
2023-07-10T19:38:42.576Z,101972.56
2023-07-10T19:41:10.881Z,101966.56
2023-07-10T19:43:37.591Z,101973.53
2023-07-10T19:46:05.110Z,101968.59
2023-07-10T19:48:35.489Z,101972.19
2023-07-10T19:51:02.992Z,101969.81
2023-07-10T19:53:31.610Z,101972.59
2023-07-10T19:56:01.438Z,101962.41
2023-07-10T19:58:30.617Z,101960.38
2023-07-10T20:01:01.317Z,101958.50
2023-07-10T20:03:30.971Z,101963.34
2023-07-10T20:05:58.051Z,101959.22
2023-07-10T20:08:29.974Z,101968.13
2023-07-10T20:10:57.363Z,101962.81
2023-07-10T20:13:27.345Z,101957.84
2023-07-10T20:16:03.660Z,101950.03
2023-07-10T20:18:33.816Z,101952.44
2023-07-10T20:21:01.304Z,101952.81
2023-07-10T20:23:28.829Z,101949.28
2023-07-10T20:26:05.462Z,101943.69
2023-07-10T20:28:37.563Z,101945.31
2023-07-10T20:31:05.048Z,101933.88
2023-07-10T20:33:34.773Z,101936.63
2023-07-10T20:36:04.200Z,101936.94
2023-07-10T20:38:39.510Z,101936.31
2023-07-10T20:41:06.800Z,101930.38
2023-07-10T20:43:34.096Z,101931.97
2023-07-10T20:46:10.662Z,101941.63
2023-07-10T20:48:37.354Z,101930.69
2023-07-10T20:51:07.297Z,101931.66
2023-07-10T20:53:33.879Z,101928.63
2023-07-10T20:56:21.854Z,101923.28
2023-07-10T20:58:48.355Z,101926.50
2023-07-10T21:01:28.644Z,101925.22
2023-07-10T21:03:56.572Z,101921.63
2023-07-10T21:06:35.421Z,101925.28
2023-07-10T21:09:11.849Z,101927.69
2023-07-10T21:11:38.391Z,101911.47
2023-07-10T21:14:11.050Z,101911.31
2023-07-10T21:16:37.905Z,101905.03
2023-07-10T21:19:25.731Z,101903.06
2023-07-10T21:21:52.615Z,101915.09
2023-07-10T21:24:21.154Z,101911.53
2023-07-10T21:26:56.231Z,101902.69
2023-07-10T21:29:23.598Z,101903.81
2023-07-10T21:31:51.622Z,101908.28
2023-07-10T21:34:19.391Z,101899.88
2023-07-10T21:36:45.933Z,101893.88
2023-07-10T21:39:12.405Z,101908.06
2023-07-10T21:41:43.065Z,101896.63
2023-07-10T21:44:22.560Z,101900.44
2023-07-10T21:46:49.981Z,101900.22
2023-07-10T21:49:17.104Z,101898.81
2023-07-10T21:51:44.328Z,101898.81
2023-07-10T21:54:12.254Z,101892.88
2023-07-10T21:56:41.998Z,101895.59
2023-07-10T21:59:18.343Z,101889.16
2023-07-10T22:01:45.838Z,101891.22
2023-07-10T22:04:12.529Z,101885.25
2023-07-10T22:06:46.634Z,101884.59
2023-07-10T22:09:14.643Z,101881.69
2023-07-10T22:11:42.575Z,101885.34
2023-07-10T22:14:17.232Z,101878.81
2023-07-10T22:16:44.853Z,101880.97
2023-07-10T22:19:13.354Z,101877.47
2023-07-10T22:21:40.717Z,101880.41
2023-07-10T22:24:13.194Z,101876.28
2023-07-10T22:26:41.375Z,101875.09
2023-07-10T22:29:07.960Z,101873.59
2023-07-10T22:31:34.583Z,101868.56
2023-07-10T22:34:01.214Z,101864.34
2023-07-10T22:36:27.988Z,101866.47
2023-07-10T22:38:54.618Z,101864.66
2023-07-10T22:41:47.680Z,101864.56
2023-07-10T22:44:17.073Z,101864.72
2023-07-10T22:46:45.531Z,101862.91
2023-07-10T22:49:17.015Z,101862.69
2023-07-10T22:51:43.951Z,101865.72
2023-07-10T22:54:13.378Z,101859.78
2023-07-10T22:56:42.066Z,101860.97
2023-07-10T22:59:16.811Z,101855.66
2023-07-10T23:01:44.575Z,101849.91
2023-07-10T23:04:11.742Z,101845.97
2023-07-10T23:06:38.618Z,101845.38
2023-07-10T23:09:05.166Z,101839.22
2023-07-10T23:11:31.889Z,101841.88
2023-07-10T23:13:58.384Z,101831.28
2023-07-10T23:16:25.934Z,101830.31
2023-07-10T23:19:02.291Z,101832.50
2023-07-10T23:21:29.616Z,101830.88
2023-07-10T23:23:56.461Z,101835.28
2023-07-10T23:26:25.725Z,101828.63
2023-07-10T23:28:52.838Z,101826.75
2023-07-10T23:31:25.558Z,101823.41
2023-07-10T23:33:52.757Z,101820.09
2023-07-10T23:36:21.416Z,101827.16
2023-07-10T23:38:48.763Z,101821.81
2023-07-10T23:41:15.504Z,101818.75
2023-07-10T23:43:42.586Z,101823.19
2023-07-10T23:46:09.931Z,101817.13
2023-07-10T23:48:37.218Z,101818.66
2023-07-10T23:51:04.576Z,101805.81
2023-07-10T23:53:31.752Z,101804.19
2023-07-10T23:55:59.173Z,101802.38
2023-07-10T23:58:26.007Z,101803.69
